• Join FlightAware (Why Join?)
  • Login
  • US Flag 
06:22AM EDT


 

Airport Tracker/Info


-or-


 

Live Flight TrackerFlight Track Log ✈ N552XJ ✈ 30-Apr-2013 ✈ KCRQ - KVNY

Flight Track Log - Related Links

Times and Time Zones

All times are in EDT time to prevent confusion due to time zone crossing. See the N552XJ flight status page for this flight to view local times or setup timezone preferences in your user account.

Time Position Orientation Groundspeed Altitude Reporting Facility
EDT Latitude Longitude Course Direction KTS MPH feet Rate Location/Type
08:14PM 33.1167 -117.4000 270° West 196 226 6,400  Level Southern California TRACON
08:15PM 33.1222 -117.4208 288° West 195 224 8,000 3,060 Climbing Los Angeles Center
08:15PM 33.1333 -117.4667 286° West 260 299 9,500 1,140 Climbing Southern California TRACON
08:16PM 33.1500 -117.5667 281° West 320 368 9,900 240 Climbing Southern California TRACON
08:17PM 33.2333 -117.6333 326° Northwest 348 400 10,000 120 Climbing Southern California TRACON
08:18PM 33.2536 -117.6628 309° West 342 394 10,100 60 Climbing Los Angeles Center
08:19PM 33.3286 -117.7311 323° Northwest 341 392 10,100 -360 Level Los Angeles Center
08:19PM 33.3833 -117.7667 332° Northwest 312 359 9,600 -1,380 Descending Southern California TRACON
08:20PM 33.4333 -117.8333 312° West 272 313 8,100 -1,680 Descending Southern California TRACON
08:21PM 33.4833 -117.8833 320° Northwest 273 314 6,300 -1,320 Descending Southern California TRACON
08:22PM 33.5200 -117.9225 318° Northwest 272 313 6,000 -180 Descending Los Angeles Center
08:23PM 33.5706 -117.9856 314° West 267 307 6,000  Level Los Angeles Center
08:24PM 33.6214 -118.0472 315° West 263 303 6,000  Level Los Angeles Center
08:24PM 33.6500 -118.0833 314° West 267 307 6,000  Level Southern California TRACON
08:25PM 33.7000 -118.1333 320° Northwest 268 308 6,000  Level Southern California TRACON
08:26PM 33.7336 -118.1850 308° West 264 304 6,000  Level Los Angeles Center
08:27PM 33.7844 -118.2469 315° West 266 306 6,000  Level Los Angeles Center
08:28PM 33.8358 -118.3089 315° West 268 308 6,000  Level Los Angeles Center
08:29PM 33.8961 -118.3856 313° West 268 308 6,000  Level Los Angeles Center
08:30PM 33.9472 -118.4492 314° West 267 307 6,000  Level Los Angeles Center
08:31PM 34.0142 -118.5067 325° Northwest 268 308 6,000 -360 Level Los Angeles Center
08:32PM 34.0753 -118.5594 324° Northwest 269 310 5,300 -600 Descending Los Angeles Center
08:33PM 34.1203 -118.5736 345° North 248 285 4,800 -1,320 Descending Los Angeles Center
08:34PM 34.2053 -118.5694 North 250 288 2,600 -1,260 Descending Los Angeles Center
08:35PM 34.2639 -118.5389 23° Northeast 214 246 2,300 -540 Descending Los Angeles Center
08:36PM 34.2500 -118.5000 113° Southeast 143 165 1,600 -720 Descending Southern California TRACON
08:39PM 34.2098 -118.4900 140° Southeast  Level Estimated